Aeroporto :







RITROVATECI SU...

 
LOGIN :

Iscrizione | Disclaimer

   EN    FR    IT 

 









Sommario :    VFR   VFR Marginale   IFR   IFR Intensivo   IFR Molto Intensivo
Visibilità : 
Base nubi : 
>= 8 km
>= 3000ft
5 / 8 km
1000 / 3000 ft
1500m / 5 km
500 / 1000 ft
800 / 1500m
200 / 500 ft
< 800m
< 200 ft
Simboli :   Temporali  Nebbia  Neve Forte  Precipitazioni Forti  Vento > 20 kt






- Altitudine del aeroporto : 169 ft
- Codice IATA : BGI


TBPB - Grantley Adams Int.

ULTIMO METAR :
  • 300700Z 07012KT 9999 VCSH SCT016 SCT036 25/20 Q1013 NOSIG

METARs OBSOLETI :
  • 300600Z 08015G26KT 9999 SHRA BKN016 24/20 Q1013 NOSIG
  • 300500Z 05010KT 9999 -SHRA BKN018 24/21 Q1014 NOSIG

TAF TAF TBPB
Valido dal 30 a 06 ore il 31 a 06 ore UTC


300500Z 3006/3106 07016KT 9999 SCT020



MetMap, La meteo Aeronautica in un colpo d'occhio ! - Copyright ORBIFLY Dicembre 2007 - Disclaimer

ORBIFLY MET'MAP TEAM :

Programmazione e sviluppo : Alexandra Zaïnal
Concezione : Baudouin d'Aumeries
Aiuto per la programmazione : Marc-Olivier Méhu
Supporto tecnico e logistico : Manuel Goepfert
Aiuto per la traduzione : Arnaldo La Scala

Contatto : metmap@orbifly.com




FONTI E CREDITI :

   NOAA